Terminal Aerodrome Forecast
Issued by NWS Charleston, WV

Current Version | Previous Version | Graphics & Text | Print | Product List | Glossary On
Versions: 1 2 3 4 5 6 7 8 9 10 11 12 13 14 15 16 17 18 19 20 21 22 23 24 25
250
FTUS41 KRLX 021130
TAFHTS
TAF
KHTS 021130Z 0212/0312 VRB03KT P6SM BKN025 BKN035
     FM021400 23007KT P6SM BKN050
     FM022200 24009KT P6SM -SHRA VCTS OVC050CB
     FM030600 VRB03KT 4SM BR OVC012=

USA.gov is the U.S. government's official web portal to all federal, state and local government web resources and services.